Terminal Aerodrome Forecast
Issued by NWS

Home | Current Version | Previous Version | Text Only | Print | Product List | Glossary On
Versions: 1 2 3 4 5 6 7 8 9 10 11 12 13
000
FTUS44 KLIX 121739
TAFMCB
TAF
KMCB 121739Z 1218/1318 29010G15KT P6SM SCT022
     FM121930 31009KT P6SM FEW023
     FM130000 35004KT P6SM SKC=

USA.gov is the U.S. government's official web portal to all federal, state and local government web resources and services.